Terminal Aerodrome Forecast
Issued by NWS

Home | Current Version | Previous Version | Text Only | Print | Product List | Glossary On
Versions: 1 2 3 4 5 6 7 8 9 10 11 12 13 14
084
FTUS42 TJSJ 012340
TAFJBQ
TAF
TJBQ 012340Z 0200/0224 10007KT P6SM SCT040
     FM021330 07015KT P6SM FEW030 BKN050
     FM022330 11008KT P6SM SCT060
      AMD NOT SKED 0202/0211=

USA.gov is the U.S. government's official web portal to all federal, state and local government web resources and services.